sensor_id;sensor_type;location;lat;lon;timestamp;pressure;altitude;pressure_sealevel;temperature;humidity
19576;BME280;41589;51.196;7.074;2023-12-04T00:00:26;98796.47;;;2.12;66.62
19576;BME280;41589;51.196;7.074;2023-12-04T00:05:27;98787.72;;;2.13;66.54
19576;BME280;41589;51.196;7.074;2023-12-04T00:10:27;98789.34;;;2.11;66.24
19576;BME280;41589;51.196;7.074;2023-12-04T00:15:27;98798.88;;;2.10;66.69
19576;BME280;41589;51.196;7.074;2023-12-04T00:20:28;98802.69;;;2.23;66.84
19576;BME280;41589;51.196;7.074;2023-12-04T00:25:28;98790.81;;;2.22;66.89
19576;BME280;41589;51.196;7.074;2023-12-04T00:30:28;98778.50;;;2.23;66.95
19576;BME280;41589;51.196;7.074;2023-12-04T00:35:29;98762.59;;;2.24;66.76
19576;BME280;41589;51.196;7.074;2023-12-04T00:40:29;98760.63;;;2.24;66.63
19576;BME280;41589;51.196;7.074;2023-12-04T00:45:29;98759.81;;;2.27;66.47
19576;BME280;41589;51.196;7.074;2023-12-04T00:50:30;98745.09;;;2.27;66.57
19576;BME280;41589;51.196;7.074;2023-12-04T00:55:30;98731.63;;;2.25;65.67
19576;BME280;41589;51.196;7.074;2023-12-04T01:00:30;98735.25;;;2.22;66.01
19576;BME280;41589;51.196;7.074;2023-12-04T01:05:31;98716.59;;;2.23;65.48
19576;BME280;41589;51.196;7.074;2023-12-04T01:10:31;98719.06;;;2.17;65.82
19576;BME280;41589;51.196;7.074;2023-12-04T01:15:32;98721.03;;;2.17;65.81
19576;BME280;41589;51.196;7.074;2023-12-04T01:20:33;98701.19;;;2.18;65.02
19576;BME280;41589;51.196;7.074;2023-12-04T01:25:33;98712.69;;;2.17;65.08
19576;BME280;41589;51.196;7.074;2023-12-04T01:30:33;98698.09;;;2.13;64.97
19576;BME280;41589;51.196;7.074;2023-12-04T01:35:34;98692.91;;;2.15;65.70
19576;BME280;41589;51.196;7.074;2023-12-04T01:40:34;98698.00;;;2.20;64.92
19576;BME280;41589;51.196;7.074;2023-12-04T01:45:34;98694.75;;;2.25;65.27
19576;BME280;41589;51.196;7.074;2023-12-04T01:50:36;98698.44;;;2.15;64.34
19576;BME280;41589;51.196;7.074;2023-12-04T01:55:37;98684.47;;;2.22;64.89
19576;BME280;41589;51.196;7.074;2023-12-04T02:00:38;98684.53;;;2.18;64.89
19576;BME280;41589;51.196;7.074;2023-12-04T02:05:39;98671.47;;;2.15;65.32
19576;BME280;41589;51.196;7.074;2023-12-04T02:10:39;98664.69;;;2.20;64.74
19576;BME280;41589;51.196;7.074;2023-12-04T02:15:40;98675.50;;;2.11;64.77
19576;BME280;41589;51.196;7.074;2023-12-04T02:20:40;98670.38;;;2.09;64.55
19576;BME280;41589;51.196;7.074;2023-12-04T02:25:41;98667.53;;;2.13;64.37
19576;BME280;41589;51.196;7.074;2023-12-04T02:30:43;98671.88;;;2.14;63.89
19576;BME280;41589;51.196;7.074;2023-12-04T02:35:43;98667.97;;;2.11;63.68
19576;BME280;41589;51.196;7.074;2023-12-04T02:40:45;98652.81;;;2.16;63.55
19576;BME280;41589;51.196;7.074;2023-12-04T02:45:46;98652.03;;;2.15;64.06
19576;BME280;41589;51.196;7.074;2023-12-04T02:50:46;98644.91;;;2.14;63.99
19576;BME280;41589;51.196;7.074;2023-12-04T02:55:46;98633.28;;;2.23;64.33
19576;BME280;41589;51.196;7.074;2023-12-04T03:00:47;98619.72;;;2.28;64.09
19576;BME280;41589;51.196;7.074;2023-12-04T03:05:47;98611.13;;;2.19;63.26
19576;BME280;41589;51.196;7.074;2023-12-04T03:10:47;98608.28;;;2.23;63.48
19576;BME280;41589;51.196;7.074;2023-12-04T03:15:48;98595.19;;;2.23;63.64
19576;BME280;41589;51.196;7.074;2023-12-04T03:20:48;98597.19;;;2.23;63.22
19576;BME280;41589;51.196;7.074;2023-12-04T03:25:48;98579.66;;;2.26;63.40
19576;BME280;41589;51.196;7.074;2023-12-04T03:30:49;98582.78;;;2.31;62.96
19576;BME280;41589;51.196;7.074;2023-12-04T03:35:49;98582.72;;;2.35;63.25
19576;BME280;41589;51.196;7.074;2023-12-04T03:40:49;98589.91;;;2.32;62.13
19576;BME280;41589;51.196;7.074;2023-12-04T03:45:50;98567.84;;;2.22;61.59
19576;BME280;41589;51.196;7.074;2023-12-04T03:50:50;98568.94;;;2.28;61.92
19576;BME280;41589;51.196;7.074;2023-12-04T03:55:50;98559.09;;;2.23;61.26
19576;BME280;41589;51.196;7.074;2023-12-04T04:00:51;98568.56;;;2.26;62.24
19576;BME280;41589;51.196;7.074;2023-12-04T04:05:51;98551.91;;;2.26;62.14
19576;BME280;41589;51.196;7.074;2023-12-04T04:10:51;98552.75;;;2.23;61.43
19576;BME280;41589;51.196;7.074;2023-12-04T04:15:52;98552.69;;;2.26;61.17
19576;BME280;41589;51.196;7.074;2023-12-04T04:20:52;98539.59;;;2.27;60.87
19576;BME280;41589;51.196;7.074;2023-12-04T04:25:52;98535.19;;;2.29;61.49
19576;BME280;41589;51.196;7.074;2023-12-04T04:30:53;98520.53;;;2.29;61.27
19576;BME280;41589;51.196;7.074;2023-12-04T04:35:53;98526.09;;;2.29;61.42
19576;BME280;41589;51.196;7.074;2023-12-04T04:40:53;98520.28;;;2.20;60.82
19576;BME280;41589;51.196;7.074;2023-12-04T04:45:54;98519.00;;;2.24;61.30
19576;BME280;41589;51.196;7.074;2023-12-04T04:50:54;98517.78;;;2.25;60.52
19576;BME280;41589;51.196;7.074;2023-12-04T04:55:54;98515.06;;;2.22;60.48
19576;BME280;41589;51.196;7.074;2023-12-04T05:00:55;98518.03;;;2.34;61.40
19576;BME280;41589;51.196;7.074;2023-12-04T05:05:55;98510.25;;;2.26;60.54
19576;BME280;41589;51.196;7.074;2023-12-04T05:10:55;98503.28;;;2.14;60.66
19576;BME280;41589;51.196;7.074;2023-12-04T05:15:56;98493.72;;;2.19;60.84
19576;BME280;41589;51.196;7.074;2023-12-04T05:20:56;98498.09;;;2.16;60.63
19576;BME280;41589;51.196;7.074;2023-12-04T05:25:56;98492.50;;;2.20;60.25
19576;BME280;41589;51.196;7.074;2023-12-04T05:30:57;98479.09;;;2.15;60.58
19576;BME280;41589;51.196;7.074;2023-12-04T05:35:57;98473.00;;;2.23;61.17
19576;BME280;41589;51.196;7.074;2023-12-04T05:40:57;98471.94;;;2.17;60.38
19576;BME280;41589;51.196;7.074;2023-12-04T05:45:58;98464.91;;;2.09;60.24
19576;BME280;41589;51.196;7.074;2023-12-04T05:50:59;98470.81;;;2.11;60.78
19576;BME280;41589;51.196;7.074;2023-12-04T05:55:59;98475.88;;;2.16;61.20
19576;BME280;41589;51.196;7.074;2023-12-04T06:01:00;98471.84;;;2.21;61.33
19576;BME280;41589;51.196;7.074;2023-12-04T06:06:00;98473.53;;;2.15;60.39
19576;BME280;41589;51.196;7.074;2023-12-04T06:11:00;98478.25;;;2.18;60.49
19576;BME280;41589;51.196;7.074;2023-12-04T06:16:01;98463.28;;;2.12;59.97
19576;BME280;41589;51.196;7.074;2023-12-04T06:21:02;98463.81;;;2.03;59.95
19576;BME280;41589;51.196;7.074;2023-12-04T06:26:02;98449.75;;;2.14;60.61
19576;BME280;41589;51.196;7.074;2023-12-04T06:31:03;98437.97;;;2.06;60.71
19576;BME280;41589;51.196;7.074;2023-12-04T06:36:04;98436.41;;;2.05;60.32
19576;BME280;41589;51.196;7.074;2023-12-04T06:41:07;98432.03;;;2.08;60.67
19576;BME280;41589;51.196;7.074;2023-12-04T06:46:08;98427.19;;;2.12;60.43
19576;BME280;41589;51.196;7.074;2023-12-04T06:51:08;98406.84;;;2.18;60.26
19576;BME280;41589;51.196;7.074;2023-12-04T06:56:09;98392.97;;;2.18;60.07
19576;BME280;41589;51.196;7.074;2023-12-04T07:01:09;98390.22;;;2.15;59.95
19576;BME280;41589;51.196;7.074;2023-12-04T07:06:10;98376.78;;;2.13;59.82
19576;BME280;41589;51.196;7.074;2023-12-04T07:11:10;98364.41;;;2.18;60.69
19576;BME280;41589;51.196;7.074;2023-12-04T07:16:10;98374.31;;;2.19;60.72
19576;BME280;41589;51.196;7.074;2023-12-04T07:21:11;98349.00;;;2.13;59.98
19576;BME280;41589;51.196;7.074;2023-12-04T07:26:12;98352.56;;;2.14;60.02
19576;BME280;41589;51.196;7.074;2023-12-04T07:31:13;98346.97;;;2.17;60.26
19576;BME280;41589;51.196;7.074;2023-12-04T07:36:13;98347.78;;;2.14;59.67
19576;BME280;41589;51.196;7.074;2023-12-04T07:41:13;98349.38;;;2.15;60.28
19576;BME280;41589;51.196;7.074;2023-12-04T07:46:14;98343.25;;;2.24;59.71
19576;BME280;41589;51.196;7.074;2023-12-04T07:51:14;98352.69;;;2.30;59.89
19576;BME280;41589;51.196;7.074;2023-12-04T07:56:15;98344.34;;;2.30;59.16
19576;BME280;41589;51.196;7.074;2023-12-04T08:01:15;98337.38;;;2.42;60.48
19576;BME280;41589;51.196;7.074;2023-12-04T08:06:15;98347.25;;;2.43;59.98
19576;BME280;41589;51.196;7.074;2023-12-04T08:11:18;98356.25;;;2.50;59.24
19576;BME280;41589;51.196;7.074;2023-12-04T08:16:19;98360.59;;;2.51;59.61
19576;BME280;41589;51.196;7.074;2023-12-04T08:21:20;98336.38;;;2.52;59.16
19576;BME280;41589;51.196;7.074;2023-12-04T08:26:24;98351.03;;;2.52;58.88
19576;BME280;41589;51.196;7.074;2023-12-04T08:31:24;98352.53;;;2.57;59.05
19576;BME280;41589;51.196;7.074;2023-12-04T08:36:25;98344.56;;;2.59;58.46
19576;BME280;41589;51.196;7.074;2023-12-04T08:41:25;98337.03;;;2.59;59.12
19576;BME280;41589;51.196;7.074;2023-12-04T08:46:28;98326.09;;;2.69;58.28
19576;BME280;41589;51.196;7.074;2023-12-04T08:51:28;98315.63;;;2.56;57.66
19576;BME280;41589;51.196;7.074;2023-12-04T08:56:29;98316.56;;;2.70;58.13
19576;BME280;41589;51.196;7.074;2023-12-04T09:01:29;98305.28;;;2.77;58.32
19576;BME280;41589;51.196;7.074;2023-12-04T09:06:30;98299.28;;;2.78;57.84
19576;BME280;41589;51.196;7.074;2023-12-04T09:11:31;98293.22;;;2.83;57.72
19576;BME280;41589;51.196;7.074;2023-12-04T09:16:31;98276.41;;;2.90;58.13
19576;BME280;41589;51.196;7.074;2023-12-04T09:21:32;98267.81;;;3.01;57.79
19576;BME280;41589;51.196;7.074;2023-12-04T09:26:33;98266.59;;;3.02;57.68
19576;BME280;41589;51.196;7.074;2023-12-04T09:31:33;98257.72;;;3.07;57.39
19576;BME280;41589;51.196;7.074;2023-12-04T09:36:34;98261.47;;;3.17;57.60
19576;BME280;41589;51.196;7.074;2023-12-04T09:41:35;98251.66;;;3.12;57.02
19576;BME280;41589;51.196;7.074;2023-12-04T09:46:35;98242.00;;;3.17;56.69
19576;BME280;41589;51.196;7.074;2023-12-04T09:51:39;98236.44;;;3.17;56.77
19576;BME280;41589;51.196;7.074;2023-12-04T09:56:39;98224.88;;;3.18;56.62
19576;BME280;41589;51.196;7.074;2023-12-04T10:01:40;98220.03;;;3.22;56.81
19576;BME280;41589;51.196;7.074;2023-12-04T10:06:43;98220.47;;;3.21;56.85
19576;BME280;41589;51.196;7.074;2023-12-04T10:11:45;98206.47;;;3.25;56.43
19576;BME280;41589;51.196;7.074;2023-12-04T10:16:46;98189.34;;;3.26;57.11
19576;BME280;41589;51.196;7.074;2023-12-04T10:21:49;98177.88;;;3.24;56.65
19576;BME280;41589;51.196;7.074;2023-12-04T10:26:50;98163.63;;;3.06;55.71
19576;BME280;41589;51.196;7.074;2023-12-04T10:31:51;98167.97;;;3.23;56.89
19576;BME280;41589;51.196;7.074;2023-12-04T10:36:52;98159.97;;;3.25;56.29
19576;BME280;41589;51.196;7.074;2023-12-04T10:42:01;98159.41;;;3.30;56.65
19576;BME280;41589;51.196;7.074;2023-12-04T10:47:02;98146.28;;;3.31;57.00
19576;BME280;41589;51.196;7.074;2023-12-04T10:52:04;98149.50;;;3.29;56.36
19576;BME280;41589;51.196;7.074;2023-12-04T10:57:05;98139.09;;;3.33;56.80
19576;BME280;41589;51.196;7.074;2023-12-04T11:02:09;98124.31;;;3.36;56.74
19576;BME280;41589;51.196;7.074;2023-12-04T11:07:14;98128.97;;;3.39;56.57
19576;BME280;41589;51.196;7.074;2023-12-04T11:12:18;98118.09;;;3.45;57.27
19576;BME280;41589;51.196;7.074;2023-12-04T11:17:21;98107.91;;;3.55;57.50
19576;BME280;41589;51.196;7.074;2023-12-04T11:22:25;98118.94;;;3.58;57.48
19576;BME280;41589;51.196;7.074;2023-12-04T11:27:25;98120.25;;;3.54;58.08
19576;BME280;41589;51.196;7.074;2023-12-04T11:32:28;98100.69;;;3.57;58.43
19576;BME280;41589;51.196;7.074;2023-12-04T11:37:29;98115.81;;;3.56;59.10
19576;BME280;41589;51.196;7.074;2023-12-04T11:42:30;98094.78;;;3.55;59.49
19576;BME280;41589;51.196;7.074;2023-12-04T11:47:30;98096.00;;;3.54;59.48
19576;BME280;41589;51.196;7.074;2023-12-04T11:52:33;98087.41;;;3.48;60.08
19576;BME280;41589;51.196;7.074;2023-12-04T11:57:38;98080.41;;;3.57;60.81
19576;BME280;41589;51.196;7.074;2023-12-04T12:02:40;98074.41;;;3.58;60.39
19576;BME280;41589;51.196;7.074;2023-12-04T12:07:41;98058.16;;;3.57;61.11
19576;BME280;41589;51.196;7.074;2023-12-04T12:12:42;98040.91;;;3.62;61.35
19576;BME280;41589;51.196;7.074;2023-12-04T12:17:43;98039.69;;;3.63;61.86
19576;BME280;41589;51.196;7.074;2023-12-04T12:22:43;98019.53;;;3.71;61.72
19576;BME280;41589;51.196;7.074;2023-12-04T12:27:44;98007.94;;;3.60;62.05
19576;BME280;41589;51.196;7.074;2023-12-04T12:32:45;97993.38;;;3.56;62.92
19576;BME280;41589;51.196;7.074;2023-12-04T12:37:46;97990.47;;;3.60;63.08
19576;BME280;41589;51.196;7.074;2023-12-04T12:42:46;97975.13;;;3.55;62.86
19576;BME280;41589;51.196;7.074;2023-12-04T12:47:47;97973.13;;;3.56;63.00
19576;BME280;41589;51.196;7.074;2023-12-04T12:52:48;97965.66;;;3.65;63.98
19576;BME280;41589;51.196;7.074;2023-12-04T12:57:49;97960.09;;;3.53;63.60
19576;BME280;41589;51.196;7.074;2023-12-04T13:02:52;97955.97;;;3.57;64.17
19576;BME280;41589;51.196;7.074;2023-12-04T13:07:53;97946.41;;;3.58;63.93
19576;BME280;41589;51.196;7.074;2023-12-04T13:12:55;97939.03;;;3.51;64.53
19576;BME280;41589;51.196;7.074;2023-12-04T13:17:56;97930.59;;;3.55;65.14
19576;BME280;41589;51.196;7.074;2023-12-04T13:22:57;97924.25;;;3.55;65.15
19576;BME280;41589;51.196;7.074;2023-12-04T13:27:57;97919.22;;;3.49;65.54
19576;BME280;41589;51.196;7.074;2023-12-04T13:32:57;97902.09;;;3.51;65.81
19576;BME280;41589;51.196;7.074;2023-12-04T13:37:58;97887.19;;;3.58;66.19
19576;BME280;41589;51.196;7.074;2023-12-04T13:42:59;97882.28;;;3.62;66.00
19576;BME280;41589;51.196;7.074;2023-12-04T13:48:18;97870.38;;;3.61;66.06
19576;BME280;41589;51.196;7.074;2023-12-04T13:53:21;97874.16;;;3.67;66.61
19576;BME280;41589;51.196;7.074;2023-12-04T13:58:29;97847.66;;;3.75;66.03
19576;BME280;41589;51.196;7.074;2023-12-04T14:03:44;97850.13;;;3.73;66.36
19576;BME280;41589;51.196;7.074;2023-12-04T14:08:44;97833.41;;;3.73;66.38
19576;BME280;41589;51.196;7.074;2023-12-04T14:13:46;97827.16;;;3.69;66.20
19576;BME280;41589;51.196;7.074;2023-12-04T14:18:46;97820.81;;;3.69;66.57
19576;BME280;41589;51.196;7.074;2023-12-04T14:23:46;97821.47;;;3.73;66.78
19576;BME280;41589;51.196;7.074;2023-12-04T14:28:47;97820.03;;;3.81;66.77
19576;BME280;41589;51.196;7.074;2023-12-04T14:33:49;97815.81;;;3.76;66.62
19576;BME280;41589;51.196;7.074;2023-12-04T14:38:50;97802.66;;;3.77;66.93
19576;BME280;41589;51.196;7.074;2023-12-04T14:43:50;97792.53;;;3.70;66.93
19576;BME280;41589;51.196;7.074;2023-12-04T14:48:51;97790.53;;;3.71;67.07
19576;BME280;41589;51.196;7.074;2023-12-04T14:53:51;97790.88;;;3.73;67.12
19576;BME280;41589;51.196;7.074;2023-12-04T14:59:10;97787.31;;;3.72;67.21
19576;BME280;41589;51.196;7.074;2023-12-04T15:04:29;97773.94;;;3.80;67.12
19576;BME280;41589;51.196;7.074;2023-12-04T15:09:48;97763.75;;;3.64;66.94
19576;BME280;41589;51.196;7.074;2023-12-04T15:15:07;97760.06;;;3.67;67.19
19576;BME280;41589;51.196;7.074;2023-12-04T15:20:30;97757.59;;;3.69;67.59
19576;BME280;41589;51.196;7.074;2023-12-04T15:25:31;97760.00;;;3.80;67.61
19576;BME280;41589;51.196;7.074;2023-12-04T15:30:31;97757.03;;;3.74;67.49
19576;BME280;41589;51.196;7.074;2023-12-04T15:35:31;97744.22;;;3.77;67.59
19576;BME280;41589;51.196;7.074;2023-12-04T15:40:32;97736.41;;;3.85;67.61
19576;BME280;41589;51.196;7.074;2023-12-04T15:45:32;97734.94;;;3.93;67.03
19576;BME280;41589;51.196;7.074;2023-12-04T15:50:33;97733.50;;;3.88;67.40
19576;BME280;41589;51.196;7.074;2023-12-04T15:55:33;97736.84;;;3.96;67.63
19576;BME280;41589;51.196;7.074;2023-12-04T16:00:33;97734.16;;;3.92;67.95
19576;BME280;41589;51.196;7.074;2023-12-04T16:05:34;97723.69;;;3.96;68.15
19576;BME280;41589;51.196;7.074;2023-12-04T16:10:35;97715.69;;;3.86;68.58
19576;BME280;41589;51.196;7.074;2023-12-04T16:15:36;97707.25;;;3.76;68.36
19576;BME280;41589;51.196;7.074;2023-12-04T16:20:37;97706.47;;;3.76;68.52
19576;BME280;41589;51.196;7.074;2023-12-04T16:25:37;97712.16;;;3.72;69.17
19576;BME280;41589;51.196;7.074;2023-12-04T16:30:37;97701.81;;;3.73;69.02
19576;BME280;41589;51.196;7.074;2023-12-04T16:35:41;97695.81;;;3.74;69.58
19576;BME280;41589;51.196;7.074;2023-12-04T16:40:41;97690.56;;;3.76;69.59
19576;BME280;41589;51.196;7.074;2023-12-04T16:45:41;97693.03;;;3.74;69.46
19576;BME280;41589;51.196;7.074;2023-12-04T16:50:42;97672.75;;;3.74;69.34
19576;BME280;41589;51.196;7.074;2023-12-04T16:55:42;97681.22;;;3.70;69.59
19576;BME280;41589;51.196;7.074;2023-12-04T17:00:42;97676.75;;;3.73;70.06
19576;BME280;41589;51.196;7.074;2023-12-04T17:05:43;97670.31;;;3.76;70.26
19576;BME280;41589;51.196;7.074;2023-12-04T17:10:43;97669.72;;;3.81;70.39
19576;BME280;41589;51.196;7.074;2023-12-04T17:15:44;97655.59;;;3.75;69.86
19576;BME280;41589;51.196;7.074;2023-12-04T17:20:44;97655.59;;;3.75;70.43
19576;BME280;41589;51.196;7.074;2023-12-04T17:25:46;97653.31;;;3.83;70.26
19576;BME280;41589;51.196;7.074;2023-12-04T17:30:46;97631.19;;;3.79;70.56
19576;BME280;41589;51.196;7.074;2023-12-04T17:35:49;97640.00;;;3.78;70.25
19576;BME280;41589;51.196;7.074;2023-12-04T17:40:50;97626.84;;;3.78;70.97
19576;BME280;41589;51.196;7.074;2023-12-04T17:45:51;97639.88;;;3.82;70.90
19576;BME280;41589;51.196;7.074;2023-12-04T17:50:52;97631.84;;;3.84;70.66
19576;BME280;41589;51.196;7.074;2023-12-04T17:55:52;97628.28;;;3.83;70.89
19576;BME280;41589;51.196;7.074;2023-12-04T18:00:52;97619.16;;;3.83;71.00
19576;BME280;41589;51.196;7.074;2023-12-04T18:05:53;97619.91;;;3.83;71.19
19576;BME280;41589;51.196;7.074;2023-12-04T18:10:53;97611.56;;;3.83;70.76
19576;BME280;41589;51.196;7.074;2023-12-04T18:15:53;97604.81;;;3.84;71.59
19576;BME280;41589;51.196;7.074;2023-12-04T18:20:54;97591.50;;;3.88;71.41
19576;BME280;41589;51.196;7.074;2023-12-04T18:25:57;97574.22;;;3.93;71.93
19576;BME280;41589;51.196;7.074;2023-12-04T18:30:58;97580.47;;;3.97;71.59
19576;BME280;41589;51.196;7.074;2023-12-04T18:36:00;97569.00;;;3.95;71.45
19576;BME280;41589;51.196;7.074;2023-12-04T18:41:01;97563.75;;;3.97;71.39
19576;BME280;41589;51.196;7.074;2023-12-04T18:46:02;97555.91;;;4.05;71.71
19576;BME280;41589;51.196;7.074;2023-12-04T18:51:03;97554.78;;;4.02;71.50
19576;BME280;41589;51.196;7.074;2023-12-04T18:56:06;97547.09;;;4.06;72.39
19576;BME280;41589;51.196;7.074;2023-12-04T19:01:07;97550.06;;;4.12;72.11
19576;BME280;41589;51.196;7.074;2023-12-04T19:06:08;97527.31;;;4.14;72.11
19576;BME280;41589;51.196;7.074;2023-12-04T19:11:08;97525.13;;;4.08;71.92
19576;BME280;41589;51.196;7.074;2023-12-04T19:16:09;97518.94;;;4.04;72.15
19576;BME280;41589;51.196;7.074;2023-12-04T19:21:09;97519.72;;;4.14;72.84
19576;BME280;41589;51.196;7.074;2023-12-04T19:26:09;97513.84;;;4.12;72.43
19576;BME280;41589;51.196;7.074;2023-12-04T19:31:10;97524.72;;;4.19;72.67
19576;BME280;41589;51.196;7.074;2023-12-04T19:36:11;97497.22;;;4.30;72.88
19576;BME280;41589;51.196;7.074;2023-12-04T19:41:11;97490.53;;;4.19;72.13
19576;BME280;41589;51.196;7.074;2023-12-04T19:46:12;97493.03;;;4.26;73.32
19576;BME280;41589;51.196;7.074;2023-12-04T19:51:12;97490.38;;;4.22;72.65
19576;BME280;41589;51.196;7.074;2023-12-04T19:56:12;97489.47;;;4.25;73.06
19576;BME280;41589;51.196;7.074;2023-12-04T20:01:23;97481.13;;;4.25;73.06
19576;BME280;41589;51.196;7.074;2023-12-04T20:06:24;97477.25;;;4.32;73.59
19576;BME280;41589;51.196;7.074;2023-12-04T20:11:24;97465.94;;;4.35;73.50
19576;BME280;41589;51.196;7.074;2023-12-04T20:16:24;97464.09;;;4.42;73.23
19576;BME280;41589;51.196;7.074;2023-12-04T20:21:25;97456.69;;;4.39;73.41
19576;BME280;41589;51.196;7.074;2023-12-04T20:26:25;97469.69;;;4.42;73.60
19576;BME280;41589;51.196;7.074;2023-12-04T20:31:27;97455.16;;;4.47;73.58
19576;BME280;41589;51.196;7.074;2023-12-04T20:36:27;97455.28;;;4.43;73.72
19576;BME280;41589;51.196;7.074;2023-12-04T20:41:27;97454.81;;;4.45;73.79
19576;BME280;41589;51.196;7.074;2023-12-04T20:46:28;97442.91;;;4.53;74.04
19576;BME280;41589;51.196;7.074;2023-12-04T20:51:28;97438.28;;;4.50;73.76
19576;BME280;41589;51.196;7.074;2023-12-04T20:56:29;97421.25;;;4.57;73.75
19576;BME280;41589;51.196;7.074;2023-12-04T21:01:30;97432.72;;;4.50;74.16
19576;BME280;41589;51.196;7.074;2023-12-04T21:06:30;97431.63;;;4.57;74.28
19576;BME280;41589;51.196;7.074;2023-12-04T21:11:31;97429.47;;;4.52;74.36
19576;BME280;41589;51.196;7.074;2023-12-04T21:16:31;97423.41;;;4.53;74.53
19576;BME280;41589;51.196;7.074;2023-12-04T21:21:32;97417.53;;;4.60;74.78
19576;BME280;41589;51.196;7.074;2023-12-04T21:26:32;97421.72;;;4.65;74.71
19576;BME280;41589;51.196;7.074;2023-12-04T21:31:32;97431.97;;;4.68;74.82
19576;BME280;41589;51.196;7.074;2023-12-04T21:36:33;97421.59;;;4.69;74.48
19576;BME280;41589;51.196;7.074;2023-12-04T21:41:33;97413.06;;;4.72;74.48
19576;BME280;41589;51.196;7.074;2023-12-04T21:46:34;97411.34;;;4.65;75.03
19576;BME280;41589;51.196;7.074;2023-12-04T21:51:38;97396.81;;;4.71;75.22
19576;BME280;41589;51.196;7.074;2023-12-04T21:56:38;97403.91;;;4.72;74.90
19576;BME280;41589;51.196;7.074;2023-12-04T22:01:38;97400.34;;;4.80;75.22
19576;BME280;41589;51.196;7.074;2023-12-04T22:06:39;97397.28;;;4.78;75.08
19576;BME280;41589;51.196;7.074;2023-12-04T22:11:39;97388.72;;;4.91;75.27
19576;BME280;41589;51.196;7.074;2023-12-04T22:16:39;97376.81;;;4.81;74.86
19576;BME280;41589;51.196;7.074;2023-12-04T22:21:40;97375.09;;;4.84;75.67
19576;BME280;41589;51.196;7.074;2023-12-04T22:26:40;97376.34;;;4.92;75.03
19576;BME280;41589;51.196;7.074;2023-12-04T22:31:41;97366.44;;;4.91;75.51
19576;BME280;41589;51.196;7.074;2023-12-04T22:36:42;97357.59;;;4.92;75.28
19576;BME280;41589;51.196;7.074;2023-12-04T22:41:42;97354.94;;;4.98;75.46
19576;BME280;41589;51.196;7.074;2023-12-04T22:46:43;97362.38;;;5.01;75.92
19576;BME280;41589;51.196;7.074;2023-12-04T22:51:43;97362.09;;;4.99;75.75
19576;BME280;41589;51.196;7.074;2023-12-04T22:56:43;97362.50;;;5.07;75.45
19576;BME280;41589;51.196;7.074;2023-12-04T23:01:44;97353.06;;;5.04;75.42
19576;BME280;41589;51.196;7.074;2023-12-04T23:06:44;97355.38;;;5.06;75.68
19576;BME280;41589;51.196;7.074;2023-12-04T23:11:45;97346.41;;;5.02;75.09
19576;BME280;41589;51.196;7.074;2023-12-04T23:16:45;97345.00;;;5.06;75.50
19576;BME280;41589;51.196;7.074;2023-12-04T23:21:46;97356.03;;;5.01;75.47
19576;BME280;41589;51.196;7.074;2023-12-04T23:26:47;97350.94;;;4.99;76.04
19576;BME280;41589;51.196;7.074;2023-12-04T23:31:47;97344.41;;;5.02;76.35
19576;BME280;41589;51.196;7.074;2023-12-04T23:36:48;97343.94;;;5.04;76.27
19576;BME280;41589;51.196;7.074;2023-12-04T23:41:48;97341.91;;;5.04;76.12
19576;BME280;41589;51.196;7.074;2023-12-04T23:46:48;97328.72;;;5.14;76.44
19576;BME280;41589;51.196;7.074;2023-12-04T23:51:49;97320.94;;;5.18;76.11
19576;BME280;41589;51.196;7.074;2023-12-04T23:56:49;97325.75;;;5.17;76.04
